Terminal Aerodrome Forecast
Issued by NWS

Home | Current Version | Previous Version | Text Only | Print | Product List | Glossary On
Versions: 1 2 3 4 5 6 7 8 9 10 11 12 13
000
FTUS43 KSGF 070524
TAFJLN
TAF
KJLN 070524Z 0706/0806 00000KT P6SM BKN200
     FM071400 08006KT P6SM OVC060
     FM072200 03009KT P6SM -SN OVC015
     FM080100 36007KT P6SM OVC025
     FM080400 34007KT P6SM BKN070
     FM080500 34007KT P6SM SCT130=

USA.gov is the U.S. government's official web portal to all federal, state and local government web resources and services.